createdAt,value
2019-03-01T00:01:07.304Z,100656.00
2019-03-01T00:03:37.441Z,100661.52
2019-03-01T00:06:17.754Z,100654.80
2019-03-01T00:09:07.770Z,100663.20
2019-03-01T00:12:00.336Z,100664.37
2019-03-01T00:14:57.681Z,100665.05
2019-03-01T00:17:35.244Z,100674.45
2019-03-01T00:20:24.938Z,100677.63
2019-03-01T00:23:14.390Z,100663.85
2019-03-01T00:26:06.602Z,100666.91
2019-03-01T00:28:46.889Z,100668.17
2019-03-01T00:31:36.382Z,100669.09
2019-03-01T00:34:25.989Z,100671.77
2019-03-01T00:37:05.767Z,100667.34
2019-03-01T00:39:52.494Z,100665.04
2019-03-01T00:42:46.471Z,100658.32
2019-03-01T00:45:14.960Z,100657.47
2019-03-01T00:47:43.436Z,100656.59
2019-03-01T00:50:12.102Z,100651.20
2019-03-01T00:52:40.572Z,100646.34
2019-03-01T00:55:09.906Z,100640.52
2019-03-01T00:57:38.359Z,100643.36
2019-03-01T01:00:21.990Z,100646.83
2019-03-01T01:02:50.455Z,100646.83
2019-03-01T01:05:18.959Z,100648.22
2019-03-01T01:07:47.604Z,100644.45
2019-03-01T01:10:16.090Z,100633.38
2019-03-01T01:12:44.566Z,100641.78
2019-03-01T01:15:13.058Z,100635.66
2019-03-01T01:17:41.528Z,100634.14
2019-03-01T01:20:10.593Z,100638.95
2019-03-01T01:22:39.057Z,100637.62
2019-03-01T01:25:07.713Z,100634.48
2019-03-01T01:27:36.179Z,100637.67
2019-03-01T01:30:07.660Z,100632.05
2019-03-01T01:32:36.145Z,100629.07
2019-03-01T01:35:05.384Z,100625.01
2019-03-01T01:37:33.868Z,100619.87
2019-03-01T01:40:02.365Z,100610.25
2019-03-01T01:42:30.819Z,100607.19
2019-03-01T01:44:59.316Z,100604.32
2019-03-01T01:47:27.805Z,100580.88
2019-03-01T01:49:56.320Z,100571.58
2019-03-01T01:52:24.782Z,100565.53
2019-03-01T01:54:53.300Z,100557.44
2019-03-01T01:57:21.779Z,100566.81
2019-03-01T01:59:50.275Z,100571.87
2019-03-01T02:02:18.745Z,100570.66
2019-03-01T02:04:47.240Z,100568.33
2019-03-01T02:07:15.707Z,100559.14
2019-03-01T02:09:44.192Z,100552.70
2019-03-01T02:12:12.691Z,100556.96
2019-03-01T02:14:41.158Z,100547.65
2019-03-01T02:17:09.671Z,100555.05
2019-03-01T02:19:38.132Z,100562.95
2019-03-01T02:22:06.631Z,100559.76
2019-03-01T02:24:35.114Z,100550.92
2019-03-01T02:27:24.721Z,100541.13
2019-03-01T02:29:53.531Z,100544.27
2019-03-01T02:32:34.168Z,100539.81
2019-03-01T02:35:02.632Z,100541.92
2019-03-01T02:37:31.170Z,100543.66
2019-03-01T02:40:01.336Z,100548.23
2019-03-01T02:42:29.814Z,100542.78
2019-03-01T02:44:58.323Z,100548.91
2019-03-01T02:47:26.780Z,100547.27
2019-03-01T02:49:55.292Z,100552.23
2019-03-01T02:52:23.770Z,100547.72
2019-03-01T02:54:52.272Z,100549.44
2019-03-01T02:57:20.740Z,100535.75
2019-03-01T02:59:49.255Z,100538.48
2019-03-01T03:02:17.736Z,100538.87
2019-03-01T03:04:46.234Z,100534.67
2019-03-01T03:07:16.369Z,100533.62
2019-03-01T03:09:44.832Z,100533.42
2019-03-01T03:12:13.502Z,100538.26
2019-03-01T03:14:41.978Z,100533.29
2019-03-01T03:17:10.475Z,100530.22
2019-03-01T03:19:38.945Z,100528.81
2019-03-01T03:22:07.467Z,100527.51
2019-03-01T03:24:35.966Z,100522.70
2019-03-01T03:27:04.461Z,100529.89
2019-03-01T03:29:32.937Z,100529.94
2019-03-01T03:32:01.469Z,100526.51
2019-03-01T03:34:29.985Z,100522.23
2019-03-01T03:36:58.493Z,100522.63
2019-03-01T03:39:26.984Z,100526.28
2019-03-01T03:41:55.456Z,100523.95
2019-03-01T03:44:24.010Z,100518.91
2019-03-01T03:46:52.502Z,100521.98
2019-03-01T03:49:20.994Z,100523.84
2019-03-01T03:51:49.458Z,100524.51
2019-03-01T03:54:18.217Z,100522.44
2019-03-01T03:56:46.977Z,100522.84
2019-03-01T03:59:15.636Z,100518.04
2019-03-01T04:01:44.102Z,100514.38
2019-03-01T04:04:12.602Z,100510.12
2019-03-01T04:06:41.242Z,100505.53
2019-03-01T04:09:09.820Z,100493.55
2019-03-01T04:11:38.310Z,100497.52
2019-03-01T04:14:06.816Z,100490.73
2019-03-01T04:16:35.297Z,100492.55
2019-03-01T04:19:03.819Z,100497.87
2019-03-01T04:21:32.283Z,100494.39
2019-03-01T04:24:00.781Z,100487.73
2019-03-01T04:26:29.253Z,100484.61
2019-03-01T04:28:57.741Z,100479.67
2019-03-01T04:31:26.218Z,100473.70
2019-03-01T04:33:54.716Z,100469.16
2019-03-01T04:36:23.181Z,100473.03
2019-03-01T04:38:51.690Z,100472.25
2019-03-01T04:41:20.174Z,100465.92
2019-03-01T04:43:48.669Z,100460.66
2019-03-01T04:46:17.139Z,100456.35
2019-03-01T04:48:45.632Z,100446.56
2019-03-01T04:51:14.098Z,100444.67
2019-03-01T04:53:42.594Z,100438.89
2019-03-01T04:56:11.067Z,100441.93
2019-03-01T04:58:39.554Z,100430.30
2019-03-01T05:01:08.031Z,100434.29
2019-03-01T05:03:36.524Z,100428.62
2019-03-01T05:06:05.060Z,100428.56
2019-03-01T05:08:33.546Z,100434.20
2019-03-01T05:11:02.021Z,100436.63
2019-03-01T05:13:30.504Z,100427.75
2019-03-01T05:15:58.985Z,100421.12
2019-03-01T05:18:27.490Z,100427.47
2019-03-01T05:20:55.970Z,100420.42
2019-03-01T05:23:24.451Z,100421.91
2019-03-01T05:25:52.936Z,100423.94
2019-03-01T05:28:21.396Z,100423.61
2019-03-01T05:30:49.921Z,100427.23
2019-03-01T05:33:18.397Z,100431.27
2019-03-01T05:35:46.877Z,100429.57
2019-03-01T05:38:21.738Z,100436.87
2019-03-01T05:40:45.566Z,100439.45
2019-03-01T05:43:14.030Z,100434.52
2019-03-01T05:45:42.555Z,100441.33
2019-03-01T05:48:11.027Z,100438.66
2019-03-01T05:50:39.523Z,100435.45
2019-03-01T05:53:07.986Z,100436.75
2019-03-01T05:55:36.494Z,100443.62
2019-03-01T05:58:31.913Z,100430.67
2019-03-01T06:01:15.224Z,100438.03
2019-03-01T06:04:05.299Z,100442.66
2019-03-01T06:06:42.320Z,100441.02
2019-03-01T06:09:13.841Z,100432.88
2019-03-01T06:11:47.967Z,100434.41
2019-03-01T06:14:36.094Z,100436.06
2019-03-01T06:17:13.522Z,100435.73
2019-03-01T06:19:53.712Z,100432.64
2019-03-01T06:22:40.074Z,100440.36
2019-03-01T06:25:14.222Z,100437.23
2019-03-01T06:27:54.222Z,100430.21
2019-03-01T06:30:52.067Z,100432.15
2019-03-01T06:33:40.561Z,100426.73
2019-03-01T06:36:20.786Z,100429.43
2019-03-01T06:38:56.754Z,100434.16
2019-03-01T06:42:01.792Z,100438.26
2019-03-01T06:45:06.736Z,100443.62
2019-03-01T06:47:48.382Z,100450.57
2019-03-01T06:50:18.231Z,100453.55
2019-03-01T06:52:46.703Z,100457.16
2019-03-01T06:55:30.317Z,100463.55
2019-03-01T06:57:58.791Z,100460.20
2019-03-01T07:00:28.273Z,100462.09
2019-03-01T07:02:58.690Z,100467.45
2019-03-01T07:05:27.236Z,100463.01
2019-03-01T07:07:55.729Z,100473.98
2019-03-01T07:10:24.216Z,100471.81
2019-03-01T07:12:52.761Z,100463.73
2019-03-01T07:15:21.306Z,100462.00
2019-03-01T07:17:49.781Z,100465.24
2019-03-01T07:20:18.248Z,100465.77
2019-03-01T07:22:46.752Z,100468.13
2019-03-01T07:25:15.230Z,100470.94
2019-03-01T07:27:43.717Z,100471.23
2019-03-01T07:30:12.469Z,100475.53
2019-03-01T07:32:40.953Z,100479.67
2019-03-01T07:35:10.265Z,100476.19
2019-03-01T07:37:38.766Z,100475.91
2019-03-01T07:40:09.776Z,100475.50
2019-03-01T07:42:38.273Z,100473.24
2019-03-01T07:45:12.482Z,100473.16
2019-03-01T07:47:40.969Z,100469.88
2019-03-01T07:50:12.149Z,100473.81
2019-03-01T07:52:40.706Z,100470.38
2019-03-01T07:55:11.684Z,100475.13
2019-03-01T07:57:40.196Z,100477.32
2019-03-01T08:00:17.910Z,100468.41
2019-03-01T08:02:46.405Z,100465.05
2019-03-01T08:05:16.313Z,100460.95
2019-03-01T08:07:55.305Z,100469.18
2019-03-01T08:10:20.693Z,100469.03
2019-03-01T08:12:47.536Z,100468.48
2019-03-01T08:15:17.332Z,100473.03
2019-03-01T08:17:45.827Z,100476.53
2019-03-01T08:20:16.412Z,100473.89
2019-03-01T08:22:49.097Z,100471.62
2019-03-01T08:25:22.834Z,100472.16
2019-03-01T08:27:46.449Z,100471.00
2019-03-01T08:30:17.002Z,100463.45
2019-03-01T08:32:45.675Z,100464.34
2019-03-01T08:35:18.712Z,100462.43
2019-03-01T08:37:49.834Z,100471.23
2019-03-01T08:40:18.220Z,100466.92
2019-03-01T08:42:46.777Z,100457.52
2019-03-01T08:45:20.268Z,100461.20
2019-03-01T08:47:49.157Z,100465.81
2019-03-01T08:50:18.290Z,100466.59
2019-03-01T08:52:47.054Z,100467.05
2019-03-01T08:55:18.233Z,100475.70
2019-03-01T08:57:46.726Z,100475.62
2019-03-01T09:00:18.171Z,100482.61
2019-03-01T09:02:46.637Z,100480.92
2019-03-01T09:05:15.116Z,100480.55
2019-03-01T09:07:43.642Z,100485.47
2019-03-01T09:10:14.741Z,100483.59
2019-03-01T09:12:43.227Z,100478.92
2019-03-01T09:15:13.938Z,100491.07
2019-03-01T09:17:42.441Z,100492.55
2019-03-01T09:20:15.918Z,100498.92
2019-03-01T09:22:44.805Z,100502.66
2019-03-01T09:25:15.489Z,100495.83
2019-03-01T09:27:43.980Z,100494.34
2019-03-01T09:30:21.548Z,100497.80
2019-03-01T09:32:50.045Z,100489.71
2019-03-01T09:35:39.605Z,100488.23
2019-03-01T09:38:08.698Z,100487.20
2019-03-01T09:40:37.157Z,100486.05
2019-03-01T09:43:05.789Z,100493.88
2019-03-01T09:45:36.434Z,100500.23
2019-03-01T09:48:05.201Z,100502.03
2019-03-01T09:50:34.585Z,100506.66
2019-03-01T09:53:04.158Z,100509.47
2019-03-01T09:55:34.856Z,100504.78
2019-03-01T09:58:03.034Z,100498.41
2019-03-01T10:00:37.496Z,100499.77
2019-03-01T10:03:06.007Z,100492.30
2019-03-01T10:05:34.496Z,100498.28
2019-03-01T10:08:03.002Z,100504.63
2019-03-01T10:10:35.309Z,100497.33
2019-03-01T10:13:04.099Z,100497.39
2019-03-01T10:15:32.651Z,100498.78
2019-03-01T10:18:01.169Z,100499.83
2019-03-01T10:20:29.647Z,100498.50
2019-03-01T10:22:58.156Z,100493.45
2019-03-01T10:25:26.704Z,100497.86
2019-03-01T10:27:55.193Z,100507.53
2019-03-01T10:30:24.998Z,100504.38
2019-03-01T10:32:53.484Z,100509.53
2019-03-01T10:35:22.031Z,100510.66
2019-03-01T10:37:50.556Z,100510.89
2019-03-01T10:40:23.620Z,100506.11
2019-03-01T10:42:52.129Z,100513.38
2019-03-01T10:45:25.926Z,100519.34
2019-03-01T10:47:54.409Z,100530.56
2019-03-01T10:50:22.897Z,100530.39
2019-03-01T10:52:51.483Z,100529.63
2019-03-01T10:55:20.705Z,100536.76
2019-03-01T10:57:49.939Z,100529.77
2019-03-01T11:00:28.591Z,100533.42
2019-03-01T11:02:58.052Z,100535.94
2019-03-01T11:05:27.475Z,100533.95
2019-03-01T11:07:56.908Z,100539.34
2019-03-01T11:10:39.408Z,100538.27
2019-03-01T11:13:13.420Z,100537.16
2019-03-01T11:15:41.908Z,100543.14
2019-03-01T11:18:10.485Z,100549.55
2019-03-01T11:20:38.978Z,100552.70
2019-03-01T11:23:07.460Z,100550.97
2019-03-01T11:25:35.937Z,100550.13
2019-03-01T11:28:04.635Z,100548.09
2019-03-01T11:30:34.264Z,100546.05
2019-03-01T11:33:02.758Z,100552.89
2019-03-01T11:35:31.227Z,100553.97
2019-03-01T11:37:59.712Z,100549.59
2019-03-01T11:40:31.226Z,100542.73
2019-03-01T11:43:00.154Z,100552.97
2019-03-01T11:45:28.702Z,100551.34
2019-03-01T11:47:57.267Z,100552.37
2019-03-01T11:50:25.850Z,100554.61
2019-03-01T11:52:54.391Z,100559.02
2019-03-01T11:55:22.947Z,100560.40
2019-03-01T11:57:51.691Z,100563.01
2019-03-01T12:00:27.956Z,100569.05
2019-03-01T12:02:56.472Z,100570.52
2019-03-01T12:05:24.966Z,100572.87
2019-03-01T12:07:53.738Z,100570.73
2019-03-01T12:10:28.508Z,100570.88
2019-03-01T12:12:56.993Z,100571.94
2019-03-01T12:15:25.472Z,100568.00
2019-03-01T12:17:53.954Z,100569.77
2019-03-01T12:20:30.493Z,100562.88
2019-03-01T12:22:58.969Z,100561.63
2019-03-01T12:25:27.543Z,100568.09
2019-03-01T12:27:56.026Z,100570.42
2019-03-01T12:30:25.753Z,100577.19
2019-03-01T12:32:54.226Z,100576.67
2019-03-01T12:35:22.706Z,100578.00
2019-03-01T12:37:51.189Z,100579.39
2019-03-01T12:40:25.032Z,100579.47
2019-03-01T12:42:53.500Z,100578.47
2019-03-01T12:45:21.999Z,100573.33
2019-03-01T12:47:50.542Z,100570.02
2019-03-01T12:50:19.202Z,100578.20
2019-03-01T12:52:49.460Z,100581.64
2019-03-01T12:55:22.806Z,100592.57
2019-03-01T12:57:51.289Z,100599.09
2019-03-01T13:00:22.770Z,100604.84
2019-03-01T13:02:51.236Z,100603.95
2019-03-01T13:05:19.807Z,100611.16
2019-03-01T13:07:48.302Z,100618.31
2019-03-01T13:10:19.636Z,100622.79
2019-03-01T13:12:48.115Z,100623.52
2019-03-01T13:15:16.640Z,100630.36
2019-03-01T13:17:45.110Z,100633.06
2019-03-01T13:20:16.757Z,100640.10
2019-03-01T13:22:45.232Z,100636.98
2019-03-01T13:25:15.605Z,100638.70
2019-03-01T13:27:44.376Z,100634.95
2019-03-01T13:30:21.190Z,100646.56
2019-03-01T13:32:49.667Z,100646.48
2019-03-01T13:35:22.378Z,100651.95
2019-03-01T13:37:52.039Z,100655.94
2019-03-01T13:40:24.431Z,100662.48
2019-03-01T13:42:53.822Z,100662.59
2019-03-01T13:45:26.350Z,100658.89
2019-03-01T13:47:54.829Z,100659.80
2019-03-01T13:50:23.567Z,100658.02
2019-03-01T13:52:52.050Z,100666.17
2019-03-01T13:55:22.066Z,100671.55
2019-03-01T13:57:51.359Z,100666.12
2019-03-01T14:00:21.555Z,100669.57
2019-03-01T14:02:50.162Z,100670.30
2019-03-01T14:05:19.215Z,100675.63
2019-03-01T14:07:48.755Z,100677.02
2019-03-01T14:10:22.916Z,100679.91
2019-03-01T14:12:51.549Z,100675.34
2019-03-01T14:15:20.043Z,100676.41
2019-03-01T14:17:48.524Z,100672.70
2019-03-01T14:20:21.139Z,100681.56
2019-03-01T14:22:49.821Z,100677.91
2019-03-01T14:25:18.572Z,100679.92
2019-03-01T14:27:47.204Z,100679.09
2019-03-01T14:30:20.489Z,100681.36
2019-03-01T14:32:49.021Z,100683.48
2019-03-01T14:35:20.121Z,100692.54
2019-03-01T14:37:47.779Z,100686.17
2019-03-01T14:40:22.584Z,100689.88
2019-03-01T14:42:49.962Z,100690.91
2019-03-01T14:45:29.533Z,100691.35
2019-03-01T14:47:58.036Z,100692.81
2019-03-01T14:50:30.131Z,100693.50
2019-03-01T14:52:58.934Z,100698.54
2019-03-01T14:55:46.088Z,100701.27
2019-03-01T14:58:25.866Z,100699.67
2019-03-01T15:01:00.534Z,100705.73
2019-03-01T15:03:30.808Z,100699.21
2019-03-01T15:05:59.315Z,100704.33
2019-03-01T15:08:27.769Z,100699.36
2019-03-01T15:10:57.198Z,100699.34
2019-03-01T15:13:27.774Z,100697.03
2019-03-01T15:15:56.151Z,100694.42
2019-03-01T15:18:25.129Z,100699.34
2019-03-01T15:20:56.333Z,100699.00
2019-03-01T15:23:24.855Z,100704.40
2019-03-01T15:25:53.492Z,100702.00
2019-03-01T15:28:22.667Z,100705.83
2019-03-01T15:30:51.137Z,100710.41
2019-03-01T15:33:19.630Z,100710.41
2019-03-01T15:35:48.104Z,100715.05
2019-03-01T15:38:16.600Z,100711.99
2019-03-01T15:40:45.071Z,100714.59
2019-03-01T15:43:13.553Z,100723.09
2019-03-01T15:45:42.010Z,100727.84
2019-03-01T15:48:10.511Z,100735.80
2019-03-01T15:50:39.051Z,100743.30
2019-03-01T15:53:07.635Z,100743.48
2019-03-01T15:55:36.103Z,100749.20
2019-03-01T15:58:04.589Z,100744.67
2019-03-01T16:00:33.070Z,100750.48
2019-03-01T16:03:01.553Z,100748.45
2019-03-01T16:05:30.012Z,100756.61
2019-03-01T16:07:58.498Z,100755.23
2019-03-01T16:10:26.963Z,100762.39
2019-03-01T16:12:55.470Z,100763.74
2019-03-01T16:15:23.944Z,100768.17
2019-03-01T16:17:52.427Z,100766.91
2019-03-01T16:20:25.135Z,100774.39
2019-03-01T16:22:55.055Z,100773.34
2019-03-01T16:25:23.650Z,100770.62
2019-03-01T16:27:54.289Z,100770.14
2019-03-01T16:30:22.328Z,100777.67
2019-03-01T16:32:50.892Z,100779.00
2019-03-01T16:35:20.595Z,100790.87
2019-03-01T16:37:53.471Z,100794.39
2019-03-01T16:40:21.979Z,100797.45
2019-03-01T16:42:54.292Z,100800.94
2019-03-01T16:45:21.870Z,100805.49
2019-03-01T16:47:50.569Z,100811.23
2019-03-01T16:50:20.758Z,100810.52
2019-03-01T16:52:49.242Z,100806.14
2019-03-01T16:55:24.446Z,100819.09
2019-03-01T16:57:53.640Z,100817.30
2019-03-01T17:00:23.963Z,100822.55
2019-03-01T17:03:09.564Z,100829.26
2019-03-01T17:05:38.786Z,100836.84
2019-03-01T17:08:08.090Z,100834.67
2019-03-01T17:10:36.565Z,100836.52
2019-03-01T17:13:05.049Z,100852.48
2019-03-01T17:15:33.507Z,100849.31
2019-03-01T17:18:01.988Z,100849.38
2019-03-01T17:20:30.453Z,100862.61
2019-03-01T17:22:59.750Z,100868.86
2019-03-01T17:25:29.126Z,100860.16
2019-03-01T17:27:57.623Z,100866.20
2019-03-01T17:30:26.827Z,100871.94
2019-03-01T17:32:55.319Z,100870.23
2019-03-01T17:35:23.808Z,100869.88
2019-03-01T17:37:52.273Z,100874.74
2019-03-01T17:40:21.319Z,100871.57
2019-03-01T17:42:52.949Z,100878.72
2019-03-01T17:45:24.432Z,100878.36
2019-03-01T17:47:52.907Z,100886.70
2019-03-01T17:50:21.390Z,100885.42
2019-03-01T17:52:49.844Z,100879.84
2019-03-01T17:55:19.781Z,100887.36
2019-03-01T17:57:50.194Z,100894.09
2019-03-01T18:00:25.429Z,100896.66
2019-03-01T18:02:52.199Z,100894.09
2019-03-01T18:05:21.821Z,100905.19
2019-03-01T18:07:50.300Z,100907.40
2019-03-01T18:10:18.795Z,100909.19
2019-03-01T18:12:47.256Z,100915.14
2019-03-01T18:15:16.779Z,100913.03
2019-03-01T18:17:45.235Z,100920.88
2019-03-01T18:20:14.562Z,100916.84
2019-03-01T18:22:43.097Z,100925.41
2019-03-01T18:25:13.237Z,100932.64
2019-03-01T18:27:41.717Z,100931.77
2019-03-01T18:30:21.896Z,100931.77
2019-03-01T18:32:50.460Z,100940.70
2019-03-01T18:35:19.118Z,100944.23
2019-03-01T18:37:47.588Z,100949.17
2019-03-01T18:40:16.786Z,100948.80
2019-03-01T18:42:45.987Z,100951.99
2019-03-01T18:45:19.007Z,100952.82
2019-03-01T18:47:47.533Z,100962.08
2019-03-01T18:50:22.171Z,100965.69
2019-03-01T18:52:53.390Z,100972.41
2019-03-01T18:55:20.850Z,100980.01
2019-03-01T18:57:49.308Z,100982.33
2019-03-01T19:00:32.462Z,100991.24
2019-03-01T19:03:01.037Z,100997.22
2019-03-01T19:05:31.837Z,100999.77
2019-03-01T19:08:04.229Z,101003.27
2019-03-01T19:10:30.933Z,101007.67
2019-03-01T19:12:59.394Z,101004.62
2019-03-01T19:15:28.027Z,101005.61
2019-03-01T19:17:56.870Z,101011.89
2019-03-01T19:20:30.929Z,101019.02
2019-03-01T19:22:59.389Z,101022.97
2019-03-01T19:25:27.874Z,101022.69
2019-03-01T19:27:56.361Z,101020.87
2019-03-01T19:30:25.915Z,101023.98
2019-03-01T19:32:54.389Z,101025.17
2019-03-01T19:35:28.496Z,101031.84
2019-03-01T19:37:53.146Z,101023.07
2019-03-01T19:40:22.913Z,101023.98
2019-03-01T19:42:51.490Z,101031.03
2019-03-01T19:45:20.514Z,101027.51
2019-03-01T19:47:49.097Z,101025.73
2019-03-01T19:50:26.001Z,101024.85
2019-03-01T19:52:54.815Z,101028.28
2019-03-01T19:55:24.851Z,101030.20
2019-03-01T19:57:55.187Z,101031.03
2019-03-01T20:00:28.474Z,101038.09
2019-03-01T20:02:56.968Z,101035.34
2019-03-01T20:05:33.317Z,101031.33
2019-03-01T20:08:04.765Z,101039.75
2019-03-01T20:10:33.266Z,101039.91
2019-03-01T20:13:01.939Z,101039.42
2019-03-01T20:15:31.371Z,101042.44
2019-03-01T20:17:59.854Z,101053.97
2019-03-01T20:20:29.843Z,101053.55
2019-03-01T20:22:59.585Z,101061.52
2019-03-01T20:25:28.061Z,101058.83
2019-03-01T20:27:56.565Z,101062.42
2019-03-01T20:30:30.637Z,101066.41
2019-03-01T20:33:00.215Z,101070.84
2019-03-01T20:35:28.734Z,101067.73
2019-03-01T20:38:00.334Z,101069.48
2019-03-01T20:40:28.318Z,101076.97
2019-03-01T20:42:59.912Z,101072.59
2019-03-01T20:45:31.672Z,101069.06
2019-03-01T20:48:00.151Z,101069.00
2019-03-01T20:50:30.126Z,101070.81
2019-03-01T20:52:58.614Z,101077.02
2019-03-01T20:55:27.104Z,101077.97
2019-03-01T20:57:55.606Z,101080.55
2019-03-01T21:00:29.846Z,101081.43
2019-03-01T21:02:58.194Z,101081.86
2019-03-01T21:05:28.860Z,101089.06
2019-03-01T21:07:56.880Z,101081.94
2019-03-01T21:10:32.931Z,101083.24
2019-03-01T21:13:01.416Z,101081.64
2019-03-01T21:15:29.897Z,101084.17
2019-03-01T21:17:58.689Z,101087.20
2019-03-01T21:20:27.350Z,101082.42
2019-03-01T21:22:55.854Z,101086.77
2019-03-01T21:25:25.308Z,101084.60
2019-03-01T21:27:53.886Z,101088.53
2019-03-01T21:30:24.963Z,101083.21
2019-03-01T21:32:53.501Z,101086.35
2019-03-01T21:35:22.948Z,101090.30
2019-03-01T21:37:52.208Z,101088.07
2019-03-01T21:40:20.846Z,101089.40
2019-03-01T21:42:52.751Z,101087.80
2019-03-01T21:45:24.616Z,101098.89
2019-03-01T21:47:53.249Z,101096.55
2019-03-01T21:50:26.805Z,101100.98
2019-03-01T21:52:55.331Z,101101.83
2019-03-01T21:55:28.617Z,101098.36
2019-03-01T21:57:55.930Z,101094.77
2019-03-01T22:00:31.479Z,101095.70
2019-03-01T22:03:00.163Z,101101.83
2019-03-01T22:05:28.695Z,101102.88
2019-03-01T22:07:57.166Z,101104.58
2019-03-01T22:10:25.647Z,101108.95
2019-03-01T22:12:56.782Z,101108.05
2019-03-01T22:15:28.563Z,101103.58
2019-03-01T22:17:57.101Z,101105.78
2019-03-01T22:20:26.342Z,101106.72
2019-03-01T22:22:54.797Z,101108.92
2019-03-01T22:25:23.475Z,101107.23
2019-03-01T22:27:51.931Z,101099.80
2019-03-01T22:30:23.868Z,101105.48
2019-03-01T22:32:52.286Z,101103.67
2019-03-01T22:35:20.817Z,101107.77
2019-03-01T22:37:49.298Z,101105.05
2019-03-01T22:40:17.834Z,101104.23
2019-03-01T22:42:49.754Z,101106.33
2019-03-01T22:45:17.528Z,101105.00
2019-03-01T22:47:46.193Z,101103.67
2019-03-01T22:50:16.437Z,101100.08
2019-03-01T22:52:45.235Z,101108.02
2019-03-01T22:55:18.120Z,101106.89
2019-03-01T22:57:46.595Z,101109.52
2019-03-01T23:00:48.032Z,101110.78
2019-03-01T23:03:18.938Z,101119.15
2019-03-01T23:05:47.712Z,101118.75
2019-03-01T23:08:16.340Z,101120.50
2019-03-01T23:10:44.987Z,101119.17
2019-03-01T23:13:17.088Z,101123.19
2019-03-01T23:15:44.577Z,101126.23
2019-03-01T23:18:13.260Z,101125.79
2019-03-01T23:20:42.427Z,101113.84
2019-03-01T23:23:10.898Z,101122.26
2019-03-01T23:25:39.380Z,101119.14
2019-03-01T23:28:09.186Z,101116.16
2019-03-01T23:30:37.880Z,101112.20
2019-03-01T23:33:06.562Z,101114.52
2019-03-01T23:35:35.063Z,101117.64
2019-03-01T23:38:03.516Z,101118.04
2019-03-01T23:40:32.705Z,101123.33
2019-03-01T23:43:02.201Z,101121.60
2019-03-01T23:45:30.691Z,101120.62
2019-03-01T23:47:59.166Z,101130.91
2019-03-01T23:50:27.666Z,101125.13
2019-03-01T23:52:58.896Z,101127.78
2019-03-01T23:55:27.216Z,101122.92
2019-03-01T23:57:56.718Z,101121.59
